Time;durP1;ratioP1;P1;durP2;ratioP2;P2;SDS_P1;SDS_P2;PMS_P1;PMS_P2;Temp;Humidity;BMP_temperature;BMP_pressure;BME280_temperature;BME280_humidity;BME280_pressure;Samples;Min_cycle;Max_cycle;Signal;HPM_P1;HPM_P2
2021/12/20 00:00:27;;;;;;;18.83;9.90;;;;;;;;;;5032009;28;20037;-73
2021/12/20 00:02:55;;;;;;;19.13;9.50;;;;;;;;;;5031690;28;20434;-73
2021/12/20 00:05:22;;;;;;;17.33;8.63;;;;;;;;;;5031514;28;20505;-73
2021/12/20 00:07:48;;;;;;;15.90;9.23;;;;;;;;;;5031899;28;20041;-73
2021/12/20 00:10:15;;;;;;;17.38;9.77;;;;;;;;;;5031239;28;20072;-73
2021/12/20 00:12:43;;;;;;;16.33;9.77;;;;;;;;;;5031663;28;20038;-73
2021/12/20 00:15:10;;;;;;;20.85;10.20;;;;;;;;;;5030288;28;20021;-73
2021/12/20 00:17:37;;;;;;;21.15;10.77;;;;;;;;;;5031436;28;20029;-73
2021/12/20 00:20:04;;;;;;;20.95;10.93;;;;;;;;;;5077349;27;20039;-73
2021/12/20 00:22:30;;;;;;;21.77;11.02;;;;;;;;;;5132247;27;20017;-73
2021/12/20 00:24:57;;;;;;;21.10;11.23;;;;;;;;;;5134969;27;20037;-73
2021/12/20 00:27:23;;;;;;;18.92;10.23;;;;;;;;;;5131819;27;20424;-73
2021/12/20 00:29:50;;;;;;;19.35;10.35;;;;;;;;;;5113484;27;20023;-73
2021/12/20 00:32:17;;;;;;;18.83;9.68;;;;;;;;;;5131840;27;20023;-73
2021/12/20 00:34:45;;;;;;;16.33;9.65;;;;;;;;;;5131639;27;20024;-73
2021/12/20 00:42:43;;;;;;;18.70;10.38;;;;;;;;;;5133174;27;20031;-72
2021/12/20 00:45:10;;;;;;;18.23;10.85;;;;;;;;;;5131006;27;20050;-73
2021/12/20 00:47:37;;;;;;;22.25;10.57;;;;;;;;;;5131728;27;20015;-73
2021/12/20 00:50:04;;;;;;;21.45;11.65;;;;;;;;;;5131132;27;20027;-73
2021/12/20 00:52:30;;;;;;;17.90;10.57;;;;;;;;;;5097224;27;20088;-73
2021/12/20 00:54:56;;;;;;;18.98;9.80;;;;;;;;;;5134787;27;20015;-73
2021/12/20 00:57:23;;;;;;;15.85;9.15;;;;;;;;;;5130902;27;20114;-73
2021/12/20 00:59:49;;;;;;;16.50;9.93;;;;;;;;;;5131189;27;20515;-73
2021/12/20 01:02:16;;;;;;;23.00;9.55;;;;;;;;;;5130868;27;20023;-73
2021/12/20 01:04:43;;;;;;;22.05;9.70;;;;;;;;;;5130933;27;20030;-73
2021/12/20 01:07:09;;;;;;;16.35;8.43;;;;;;;;;;5132976;27;20016;-73
2021/12/20 01:09:35;;;;;;;14.70;7.97;;;;;;;;;;5131882;27;20027;-73
2021/12/20 01:12:05;;;;;;;17.85;8.85;;;;;;;;;;5130778;27;20469;-73
2021/12/20 01:14:34;;;;;;;15.77;8.55;;;;;;;;;;5130708;27;20047;-73
2021/12/20 01:17:05;;;;;;;15.02;8.90;;;;;;;;;;5131063;27;20022;-72
2021/12/20 01:19:35;;;;;;;17.30;9.10;;;;;;;;;;5114979;27;20485;-73
2021/12/20 01:22:02;;;;;;;21.88;8.57;;;;;;;;;;5133054;27;20465;-73
2021/12/20 01:24:29;;;;;;;15.93;8.88;;;;;;;;;;5130602;27;20031;-73
2021/12/20 01:26:55;;;;;;;18.05;8.93;;;;;;;;;;5130218;27;20016;-73
2021/12/20 01:29:22;;;;;;;16.10;7.93;;;;;;;;;;5130346;27;20028;-73
2021/12/20 01:31:48;;;;;;;13.73;7.25;;;;;;;;;;5131918;27;20389;-73
2021/12/20 01:34:14;;;;;;;16.48;8.07;;;;;;;;;;5132438;27;20377;-73
2021/12/20 01:36:41;;;;;;;17.05;8.73;;;;;;;;;;5131749;27;20043;-73
2021/12/20 01:39:07;;;;;;;27.00;10.52;;;;;;;;;;5130256;27;20029;-73
2021/12/20 01:41:38;;;;;;;27.90;10.88;;;;;;;;;;5130173;27;20370;-73
2021/12/20 01:44:05;;;;;;;103.93;23.58;;;;;;;;;;5129747;27;20046;-73
2021/12/20 01:46:32;;;;;;;54.35;15.70;;;;;;;;;;5130393;27;20029;-73
2021/12/20 01:49:00;;;;;;;27.60;11.27;;;;;;;;;;5133426;27;20025;-73
2021/12/20 01:54:11;;;;;;;24.65;11.27;;;;;;;;;;5130072;27;20488;-73
2021/12/20 01:56:41;;;;;;;24.15;12.07;;;;;;;;;;5129999;27;20059;-73
2021/12/20 01:59:08;;;;;;;24.27;11.52;;;;;;;;;;5129919;27;20027;-74
2021/12/20 02:01:35;;;;;;;26.75;11.95;;;;;;;;;;5130004;27;20024;-73
2021/12/20 02:04:05;;;;;;;29.25;13.45;;;;;;;;;;5133392;27;20045;-74
2021/12/20 02:06:39;;;;;;;37.72;13.82;;;;;;;;;;5131910;27;20039;-73
2021/12/20 02:09:13;;;;;;;38.92;13.23;;;;;;;;;;5129686;27;20469;-73
2021/12/20 02:11:40;;;;;;;22.70;9.77;;;;;;;;;;5131130;27;20019;-73
2021/12/20 02:14:07;;;;;;;14.98;7.65;;;;;;;;;;5129995;27;20019;-73
2021/12/20 02:16:34;;;;;;;17.20;7.20;;;;;;;;;;5111560;27;20023;-73
2021/12/20 02:19:01;;;;;;;17.05;8.35;;;;;;;;;;5132434;27;20022;-73
2021/12/20 02:21:28;;;;;;;14.60;7.50;;;;;;;;;;5130593;27;20035;-73
2021/12/20 02:23:54;;;;;;;15.77;8.05;;;;;;;;;;5129417;27;20414;-73
2021/12/20 02:26:22;;;;;;;16.65;7.88;;;;;;;;;;5129750;27;20068;-73
2021/12/20 02:28:51;;;;;;;16.25;8.05;;;;;;;;;;5129452;27;20442;-74
2021/12/20 02:39:16;;;;;;;9.93;6.25;;;;;;;;;;5129117;27;20493;-73
2021/12/20 02:41:43;;;;;;;16.15;9.10;;;;;;;;;;5129498;27;20023;-73
2021/12/20 02:44:21;;;;;;;16.50;9.23;;;;;;;;;;5129113;28;20131;-73
2021/12/20 02:47:14;;;;;;;15.00;7.88;;;;;;;;;;5129428;28;20016;-73
2021/12/20 02:49:38;;;;;;;13.80;7.28;;;;;;;;;;5098426;28;20019;-73
2021/12/20 02:52:08;;;;;;;11.68;7.05;;;;;;;;;;5131793;28;20030;-73
2021/12/20 02:54:35;;;;;;;13.70;6.47;;;;;;;;;;5130312;28;20027;-73
2021/12/20 02:57:02;;;;;;;12.75;6.85;;;;;;;;;;5129700;27;20016;-73
2021/12/20 02:59:29;;;;;;;12.43;7.55;;;;;;;;;;5129397;28;20024;-73
2021/12/20 03:01:57;;;;;;;14.05;7.38;;;;;;;;;;5129094;28;20015;-73
2021/12/20 03:04:23;;;;;;;16.05;7.32;;;;;;;;;;5129486;28;20034;-73
2021/12/20 03:06:52;;;;;;;13.73;7.25;;;;;;;;;;5131926;28;20019;-73
2021/12/20 03:09:21;;;;;;;12.18;7.05;;;;;;;;;;5129183;28;20027;-73
2021/12/20 03:11:48;;;;;;;18.92;8.40;;;;;;;;;;5129051;28;20023;-73
2021/12/20 03:14:19;;;;;;;16.52;8.32;;;;;;;;;;5110757;28;20038;-73
2021/12/20 03:16:46;;;;;;;16.17;7.95;;;;;;;;;;5128983;28;20023;-73
2021/12/20 03:19:12;;;;;;;25.85;9.88;;;;;;;;;;5130883;28;20023;-73
2021/12/20 03:21:38;;;;;;;20.60;9.48;;;;;;;;;;5130446;28;20019;-73
2021/12/20 03:24:05;;;;;;;19.85;9.20;;;;;;;;;;5129125;28;20041;-73
2021/12/20 03:26:32;;;;;;;21.73;10.10;;;;;;;;;;5128841;28;20381;-73
2021/12/20 03:28:58;;;;;;;19.58;9.23;;;;;;;;;;5130545;28;20030;-73
2021/12/20 03:31:25;;;;;;;21.00;9.43;;;;;;;;;;5129429;28;20049;-73
2021/12/20 03:33:51;;;;;;;16.92;8.45;;;;;;;;;;5131765;28;20038;-73
2021/12/20 03:36:17;;;;;;;17.60;8.32;;;;;;;;;;5129002;27;20565;-73
2021/12/20 03:38:44;;;;;;;16.00;8.05;;;;;;;;;;5129087;28;20039;-73
2021/12/20 03:41:10;;;;;;;11.70;6.93;;;;;;;;;;5128503;28;20021;-72
2021/12/20 03:43:37;;;;;;;16.92;8.48;;;;;;;;;;5128797;28;20042;-73
2021/12/20 03:46:05;;;;;;;16.40;8.52;;;;;;;;;;5131014;28;20027;-73
2021/12/20 03:48:32;;;;;;;19.13;9.20;;;;;;;;;;5132562;27;20027;-73
2021/12/20 03:51:01;;;;;;;14.00;7.47;;;;;;;;;;5132418;27;20033;-73
2021/12/20 03:53:27;;;;;;;16.33;8.98;;;;;;;;;;5132341;27;20035;-73
2021/12/20 03:55:54;;;;;;;20.67;8.45;;;;;;;;;;5132243;27;20023;-73
2021/12/20 03:58:21;;;;;;;27.70;11.82;;;;;;;;;;5133487;27;20042;-73
2021/12/20 04:00:47;;;;;;;30.83;11.15;;;;;;;;;;5134744;27;20024;-74
2021/12/20 04:03:14;;;;;;;29.55;11.40;;;;;;;;;;5132087;27;20023;-73
2021/12/20 04:05:41;;;;;;;42.65;11.50;;;;;;;;;;5132132;27;20499;-73
2021/12/20 04:08:07;;;;;;;30.25;11.00;;;;;;;;;;5133664;27;20019;-73
2021/12/20 04:10:34;;;;;;;25.15;9.57;;;;;;;;;;5132161;27;20501;-73
2021/12/20 04:13:01;;;;;;;39.47;8.85;;;;;;;;;;5135134;27;20037;-73
2021/12/20 04:15:27;;;;;;;25.92;9.00;;;;;;;;;;5132385;27;20044;-73
2021/12/20 04:17:54;;;;;;;45.72;8.23;;;;;;;;;;5113753;27;20064;-72
2021/12/20 04:20:20;;;;;;;64.68;9.40;;;;;;;;;;5131763;27;20522;-73
2021/12/20 04:22:46;;;;;;;41.00;9.68;;;;;;;;;;5132218;27;20016;-73
2021/12/20 04:25:13;;;;;;;29.73;9.77;;;;;;;;;;5134033;27;20031;-73
2021/12/20 04:27:39;;;;;;;53.28;10.95;;;;;;;;;;5133217;27;20042;-73
2021/12/20 04:30:10;;;;;;;51.00;9.18;;;;;;;;;;5131488;27;20027;-73
2021/12/20 04:32:40;;;;;;;35.72;8.75;;;;;;;;;;5131592;27;20025;-73
2021/12/20 04:35:07;;;;;;;37.03;8.90;;;;;;;;;;5131626;27;20027;-73
2021/12/20 04:37:33;;;;;;;25.52;8.63;;;;;;;;;;5113344;27;20023;-73
2021/12/20 04:40:05;;;;;;;36.05;8.55;;;;;;;;;;5134537;27;20037;-73
2021/12/20 04:42:31;;;;;;;33.58;9.27;;;;;;;;;;5134131;27;20035;-73
2021/12/20 04:44:58;;;;;;;43.22;9.98;;;;;;;;;;5130817;27;20039;-73
2021/12/20 04:47:24;;;;;;;37.78;9.13;;;;;;;;;;5132722;27;20029;-73
2021/12/20 04:49:51;;;;;;;52.97;9.80;;;;;;;;;;5131299;27;20511;-72
2021/12/20 04:52:17;;;;;;;41.15;9.45;;;;;;;;;;5133200;27;20031;-73
2021/12/20 04:54:43;;;;;;;32.65;10.13;;;;;;;;;;5133469;27;20035;-72
2021/12/20 04:57:10;;;;;;;35.13;9.73;;;;;;;;;;5130800;27;20511;-73
2021/12/20 04:59:36;;;;;;;28.95;9.65;;;;;;;;;;5130670;27;20033;-73
2021/12/20 05:02:03;;;;;;;110.35;8.15;;;;;;;;;;5131331;27;20027;-73
2021/12/20 05:04:29;;;;;;;86.40;8.57;;;;;;;;;;5131135;27;20029;-73
2021/12/20 05:06:55;;;;;;;42.50;7.15;;;;;;;;;;5134456;27;20034;-73
2021/12/20 05:09:25;;;;;;;34.28;8.73;;;;;;;;;;5130663;27;20023;-73
2021/12/20 05:12:00;;;;;;;48.38;8.25;;;;;;;;;;5131040;27;20071;-72
2021/12/20 05:14:27;;;;;;;37.53;8.45;;;;;;;;;;5130362;27;20026;-73
2021/12/20 05:16:53;;;;;;;20.60;7.75;;;;;;;;;;5131181;27;20021;-73
2021/12/20 05:19:19;;;;;;;23.35;8.25;;;;;;;;;;5131857;27;20029;-73
2021/12/20 05:21:46;;;;;;;48.10;8.30;;;;;;;;;;5133277;27;20030;-73
2021/12/20 05:24:12;;;;;;;22.60;9.05;;;;;;;;;;5112189;27;20035;-73
2021/12/20 05:26:39;;;;;;;26.27;8.80;;;;;;;;;;5131884;27;20023;-73
2021/12/20 05:29:07;;;;;;;30.02;9.93;;;;;;;;;;5130124;27;20030;-73
2021/12/20 05:31:34;;;;;;;21.50;9.23;;;;;;;;;;5130775;27;20045;-73
2021/12/20 05:34:01;;;;;;;26.50;9.88;;;;;;;;;;5133611;27;20041;-72
2021/12/20 05:36:27;;;;;;;20.35;10.90;;;;;;;;;;5131063;27;20023;-73
2021/12/20 05:38:53;;;;;;;21.08;9.68;;;;;;;;;;5130314;27;20007;-73
2021/12/20 05:41:20;;;;;;;34.17;9.15;;;;;;;;;;5111826;27;20031;-73
2021/12/20 05:43:46;;;;;;;18.98;9.30;;;;;;;;;;5129768;27;20040;-72
2021/12/20 05:46:13;;;;;;;18.23;8.75;;;;;;;;;;5132476;27;20030;-73
2021/12/20 05:48:39;;;;;;;22.02;9.25;;;;;;;;;;5113113;27;20378;-73
2021/12/20 05:51:06;;;;;;;19.83;8.95;;;;;;;;;;5130253;27;20035;-73
2021/12/20 05:53:32;;;;;;;18.08;8.77;;;;;;;;;;5111662;27;20492;-72
2021/12/20 05:55:58;;;;;;;21.70;9.23;;;;;;;;;;5130167;27;20026;-73
2021/12/20 05:58:25;;;;;;;29.20;9.40;;;;;;;;;;5111937;27;20037;-72
2021/12/20 06:00:51;;;;;;;18.58;9.13;;;;;;;;;;5115050;27;20023;-71
2021/12/20 06:03:17;;;;;;;21.88;9.38;;;;;;;;;;5129977;27;20026;-73
2021/12/20 06:05:44;;;;;;;24.85;9.13;;;;;;;;;;5131288;27;20023;-72
2021/12/20 06:08:11;;;;;;;21.30;8.80;;;;;;;;;;5129751;27;20024;-70
2021/12/20 06:10:37;;;;;;;26.60;9.30;;;;;;;;;;5129594;27;20393;-72
2021/12/20 06:13:04;;;;;;;19.38;9.35;;;;;;;;;;5132200;27;20027;-73
2021/12/20 06:15:31;;;;;;;19.92;8.80;;;;;;;;;;5132188;27;20033;-73
2021/12/20 06:17:57;;;;;;;19.85;9.60;;;;;;;;;;5129436;27;20023;-74
2021/12/20 06:20:24;;;;;;;25.55;12.55;;;;;;;;;;5129863;27;20011;-72
2021/12/20 06:22:51;;;;;;;21.05;9.50;;;;;;;;;;5129614;27;20015;-73
2021/12/20 06:25:18;;;;;;;21.92;9.48;;;;;;;;;;5131075;27;20493;-74
2021/12/20 06:27:44;;;;;;;37.13;8.85;;;;;;;;;;5113080;27;20031;-73
2021/12/20 06:30:11;;;;;;;23.67;10.15;;;;;;;;;;5129153;27;20087;-73
2021/12/20 06:32:42;;;;;;;38.67;9.10;;;;;;;;;;5129373;27;20033;-73
2021/12/20 06:35:09;;;;;;;20.77;9.55;;;;;;;;;;5129548;27;20029;-73
2021/12/20 06:37:35;;;;;;;29.20;14.38;;;;;;;;;;5129670;27;20026;-73
2021/12/20 06:40:03;;;;;;;20.65;9.07;;;;;;;;;;5132275;27;20477;-73
2021/12/20 06:42:29;;;;;;;20.63;8.30;;;;;;;;;;5130107;28;20084;-74
2021/12/20 06:44:56;;;;;;;21.13;8.35;;;;;;;;;;5130600;28;20057;-73
2021/12/20 06:47:23;;;;;;;20.88;9.52;;;;;;;;;;5129408;28;20019;-73
2021/12/20 06:49:49;;;;;;;23.30;10.52;;;;;;;;;;5129680;27;20027;-73
2021/12/20 06:52:15;;;;;;;30.45;14.52;;;;;;;;;;5131351;28;20354;-73
2021/12/20 06:54:42;;;;;;;19.92;9.32;;;;;;;;;;5130488;28;20042;-73
2021/12/20 06:57:08;;;;;;;19.02;8.68;;;;;;;;;;5129198;28;20023;-74
2021/12/20 06:59:34;;;;;;;27.58;9.65;;;;;;;;;;5129404;28;20031;-73
2021/12/20 07:02:01;;;;;;;22.27;8.40;;;;;;;;;;5129517;28;20075;-73
2021/12/20 07:04:27;;;;;;;21.83;8.68;;;;;;;;;;5113483;28;20042;-73
2021/12/20 07:06:53;;;;;;;24.42;8.57;;;;;;;;;;5132215;28;20022;-74
2021/12/20 07:09:20;;;;;;;23.25;8.23;;;;;;;;;;5128602;28;20027;-73
2021/12/20 07:11:46;;;;;;;20.85;7.22;;;;;;;;;;5128976;28;20474;-73
2021/12/20 07:14:12;;;;;;;23.30;8.07;;;;;;;;;;5129017;28;20040;-74
2021/12/20 07:16:40;;;;;;;24.50;8.52;;;;;;;;;;5129092;28;20486;-73
2021/12/20 07:19:07;;;;;;;18.63;8.77;;;;;;;;;;5131156;28;20519;-73
2021/12/20 07:21:33;;;;;;;26.15;7.53;;;;;;;;;;5130145;28;20023;-73
2021/12/20 07:23:59;;;;;;;15.90;8.40;;;;;;;;;;5113956;27;20039;-73
2021/12/20 07:26:26;;;;;;;23.38;10.43;;;;;;;;;;5133021;27;20023;-73
2021/12/20 07:28:53;;;;;;;30.80;12.77;;;;;;;;;;5133110;27;20030;-73
2021/12/20 07:31:20;;;;;;;22.80;10.05;;;;;;;;;;5134342;27;20031;-74
2021/12/20 07:33:47;;;;;;;20.75;8.57;;;;;;;;;;5135288;27;20027;-73
2021/12/20 07:36:15;;;;;;;31.27;11.75;;;;;;;;;;5132791;27;20019;-73
2021/12/20 07:38:42;;;;;;;22.95;10.45;;;;;;;;;;5129449;27;20029;-73
2021/12/20 07:41:08;;;;;;;20.67;9.48;;;;;;;;;;5131042;27;20022;-74
2021/12/20 07:43:35;;;;;;;33.28;8.00;;;;;;;;;;5130579;27;20034;-74
2021/12/20 07:46:01;;;;;;;44.05;7.63;;;;;;;;;;5134398;27;20556;-74
2021/12/20 07:48:27;;;;;;;34.97;10.68;;;;;;;;;;5132225;27;20038;-73
2021/12/20 07:50:54;;;;;;;37.90;16.85;;;;;;;;;;5131472;27;20033;-73
2021/12/20 07:53:20;;;;;;;35.88;14.70;;;;;;;;;;5112565;27;20042;-73
2021/12/20 07:55:46;;;;;;;31.15;12.07;;;;;;;;;;5130353;27;20026;-73
2021/12/20 07:58:13;;;;;;;46.38;11.38;;;;;;;;;;5132997;27;20019;-73
2021/12/20 08:00:39;;;;;;;36.83;10.98;;;;;;;;;;5131378;27;20864;-74
2021/12/20 08:03:06;;;;;;;27.23;9.85;;;;;;;;;;5132483;27;20027;-73
2021/12/20 08:05:33;;;;;;;24.70;9.32;;;;;;;;;;5131003;27;20031;-73
2021/12/20 08:07:59;;;;;;;30.08;10.40;;;;;;;;;;5131086;27;20344;-73
2021/12/20 08:10:30;;;;;;;23.67;11.25;;;;;;;;;;5112843;27;20508;-74
2021/12/20 08:12:56;;;;;;;25.30;12.10;;;;;;;;;;5130585;27;20513;-73
2021/12/20 08:15:23;;;;;;;36.83;13.80;;;;;;;;;;5130724;27;20027;-73
2021/12/20 08:17:50;;;;;;;21.38;11.18;;;;;;;;;;5131022;27;20035;-73
2021/12/20 08:20:16;;;;;;;23.45;9.82;;;;;;;;;;5130905;27;20038;-74
2021/12/20 08:22:42;;;;;;;21.67;10.02;;;;;;;;;;5130757;27;20030;-73
2021/12/20 08:25:10;;;;;;;22.08;10.25;;;;;;;;;;5123963;27;20027;-74
2021/12/20 08:27:36;;;;;;;29.75;11.98;;;;;;;;;;5132645;27;20023;-73
2021/12/20 08:30:04;;;;;;;23.25;10.70;;;;;;;;;;5131441;27;20035;-73
2021/12/20 08:32:30;;;;;;;22.85;12.35;;;;;;;;;;5131353;27;20398;-72
2021/12/20 08:34:56;;;;;;;23.73;11.70;;;;;;;;;;5130908;27;20029;-73
2021/12/20 08:37:23;;;;;;;32.28;10.48;;;;;;;;;;5132050;27;20060;-73
2021/12/20 08:39:49;;;;;;;25.10;11.27;;;;;;;;;;5134016;27;20524;-73
2021/12/20 08:42:16;;;;;;;37.75;11.45;;;;;;;;;;5132653;27;20027;-73
2021/12/20 08:44:42;;;;;;;22.20;12.38;;;;;;;;;;5130677;27;20047;-73
2021/12/20 08:47:09;;;;;;;22.70;11.27;;;;;;;;;;5130871;27;20326;-73
2021/12/20 08:49:35;;;;;;;26.67;11.20;;;;;;;;;;5131336;27;20046;-73
2021/12/20 08:52:01;;;;;;;33.53;11.93;;;;;;;;;;5133766;27;20023;-73
2021/12/20 08:54:29;;;;;;;28.38;12.20;;;;;;;;;;5131564;27;20501;-73
2021/12/20 08:56:56;;;;;;;28.17;10.98;;;;;;;;;;5131108;27;20064;-73
2021/12/20 08:59:23;;;;;;;18.42;10.75;;;;;;;;;;5112532;27;20430;-73
2021/12/20 09:01:49;;;;;;;21.63;11.02;;;;;;;;;;5130987;27;20027;-73
2021/12/20 09:04:16;;;;;;;23.35;11.00;;;;;;;;;;5114518;27;20035;-73
2021/12/20 09:06:43;;;;;;;30.83;11.02;;;;;;;;;;5132223;27;20064;-73
2021/12/20 09:09:11;;;;;;;31.30;11.65;;;;;;;;;;5130852;27;20048;-73
2021/12/20 09:11:38;;;;;;;35.58;11.52;;;;;;;;;;5130851;27;20396;-74
2021/12/20 09:14:04;;;;;;;28.73;10.85;;;;;;;;;;5130595;27;20401;-73
2021/12/20 09:16:31;;;;;;;21.45;10.98;;;;;;;;;;5130544;27;20041;-73
2021/12/20 09:18:57;;;;;;;20.23;11.07;;;;;;;;;;5134112;27;20912;-73
2021/12/20 09:21:23;;;;;;;22.40;11.90;;;;;;;;;;5131467;27;20392;-73
2021/12/20 09:23:50;;;;;;;27.23;11.90;;;;;;;;;;5130314;27;20053;-73
2021/12/20 09:26:17;;;;;;;20.67;11.07;;;;;;;;;;5131000;27;20025;-73
2021/12/20 09:28:43;;;;;;;20.40;11.30;;;;;;;;;;5129427;27;20027;-73
2021/12/20 09:31:10;;;;;;;17.17;10.05;;;;;;;;;;5132555;27;20545;-73
2021/12/20 09:33:36;;;;;;;15.73;9.00;;;;;;;;;;5131515;27;20027;-73
2021/12/20 09:36:03;;;;;;;22.63;13.48;;;;;;;;;;5129964;27;20019;-73
2021/12/20 09:38:31;;;;;;;28.10;13.18;;;;;;;;;;5130373;27;20029;-73
2021/12/20 09:43:44;;;;;;;25.67;13.20;;;;;;;;;;5114622;27;20047;-73
2021/12/20 09:46:11;;;;;;;25.20;14.10;;;;;;;;;;5096211;27;20041;-73
2021/12/20 09:48:37;;;;;;;24.60;13.40;;;;;;;;;;5130671;27;20034;-73
2021/12/20 09:51:05;;;;;;;27.33;15.27;;;;;;;;;;5129879;27;20031;-73
2021/12/20 09:53:33;;;;;;;32.38;15.35;;;;;;;;;;5129720;27;20047;-73
2021/12/20 09:55:59;;;;;;;31.25;16.83;;;;;;;;;;5129880;27;20025;-73
2021/12/20 09:58:27;;;;;;;31.63;15.73;;;;;;;;;;5131263;27;20673;-73
2021/12/20 10:00:53;;;;;;;28.55;15.63;;;;;;;;;;5133317;27;20477;-74
2021/12/20 10:03:20;;;;;;;33.05;17.52;;;;;;;;;;5129383;27;20438;-73
2021/12/20 10:05:47;;;;;;;36.58;19.33;;;;;;;;;;5129849;27;20039;-73
2021/12/20 10:08:16;;;;;;;35.60;19.27;;;;;;;;;;5129640;27;20029;-73
2021/12/20 10:10:43;;;;;;;25.13;14.85;;;;;;;;;;5129608;27;20031;-74
2021/12/20 10:13:30;;;;;;;25.95;15.05;;;;;;;;;;5131979;27;20049;-74
2021/12/20 10:15:57;;;;;;;34.47;18.08;;;;;;;;;;5132989;27;20049;-73
2021/12/20 10:18:24;;;;;;;32.20;16.45;;;;;;;;;;5129112;27;20023;-73
2021/12/20 10:20:52;;;;;;;31.10;16.75;;;;;;;;;;5129501;27;20019;-73
2021/12/20 10:23:26;;;;;;;32.90;17.70;;;;;;;;;;5129417;27;20107;-73
2021/12/20 10:25:58;;;;;;;29.48;16.38;;;;;;;;;;5129305;27;20031;-73
2021/12/20 10:28:25;;;;;;;28.90;16.58;;;;;;;;;;5129994;27;20483;-73
2021/12/20 10:31:09;;;;;;;33.13;18.65;;;;;;;;;;5132563;27;20068;-73
2021/12/20 10:33:35;;;;;;;34.17;20.00;;;;;;;;;;5131788;27;20041;-73
2021/12/20 10:36:04;;;;;;;40.35;22.55;;;;;;;;;;5128491;27;20396;-73
2021/12/20 10:38:38;;;;;;;31.95;19.08;;;;;;;;;;5111961;28;20104;-73
2021/12/20 10:41:04;;;;;;;35.40;19.90;;;;;;;;;;5129118;27;20030;-74
2021/12/20 10:43:48;;;;;;;34.80;20.30;;;;;;;;;;5129159;27;20041;-73
2021/12/20 10:46:22;;;;;;;36.58;21.77;;;;;;;;;;5131502;28;20042;-73
2021/12/20 10:48:50;;;;;;;35.67;21.35;;;;;;;;;;5130176;28;20055;-73
2021/12/20 10:51:17;;;;;;;44.78;25.60;;;;;;;;;;5129055;28;20031;-73
2021/12/20 10:53:57;;;;;;;39.35;23.15;;;;;;;;;;5128868;28;20393;-73
2021/12/20 10:56:24;;;;;;;39.95;22.52;;;;;;;;;;5128846;28;20015;-73
2021/12/20 10:58:50;;;;;;;44.40;24.88;;;;;;;;;;5132931;27;20497;-74
2021/12/20 11:01:47;;;;;;;34.95;21.33;;;;;;;;;;5135053;27;20507;-74
2021/12/20 11:04:12;;;;;;;39.75;23.45;;;;;;;;;;5132449;27;20035;-73
2021/12/20 11:07:00;;;;;;;38.47;21.83;;;;;;;;;;5134221;27;20434;-73
2021/12/20 11:09:28;;;;;;;36.13;21.30;;;;;;;;;;5135091;27;20388;-73
2021/12/20 11:11:56;;;;;;;39.00;23.73;;;;;;;;;;5132985;27;20507;-73
2021/12/20 11:14:26;;;;;;;43.85;25.08;;;;;;;;;;5133204;27;20039;-74
2021/12/20 11:16:54;;;;;;;44.83;24.92;;;;;;;;;;5134391;27;20017;-74
2021/12/20 11:19:33;;;;;;;37.13;22.10;;;;;;;;;;5134333;27;20038;-74
2021/12/20 11:22:01;;;;;;;41.90;25.25;;;;;;;;;;5132318;27;20492;-73
2021/12/20 11:24:29;;;;;;;42.10;25.00;;;;;;;;;;5134707;27;20031;-74
2021/12/20 11:26:57;;;;;;;38.80;25.13;;;;;;;;;;5132903;27;20390;-73
2021/12/20 11:29:23;;;;;;;42.78;25.27;;;;;;;;;;5132783;27;20026;-74
2021/12/20 11:31:51;;;;;;;40.67;24.48;;;;;;;;;;5132381;27;20024;-74
2021/12/20 11:34:17;;;;;;;37.42;22.30;;;;;;;;;;5134608;27;20031;-73
2021/12/20 11:36:44;;;;;;;40.67;24.35;;;;;;;;;;5134384;27;20504;-74
2021/12/20 11:39:11;;;;;;;41.58;23.75;;;;;;;;;;5132536;27;20071;-73
2021/12/20 11:41:38;;;;;;;42.38;23.95;;;;;;;;;;5132608;27;20396;-73
2021/12/20 11:44:05;;;;;;;39.90;21.40;;;;;;;;;;5132200;27;20433;-74
2021/12/20 11:46:51;;;;;;;34.25;19.58;;;;;;;;;;5132279;27;20019;-73
2021/12/20 11:49:19;;;;;;;34.00;20.10;;;;;;;;;;5134189;27;20012;-73
2021/12/20 11:52:00;;;;;;;36.67;21.73;;;;;;;;;;5134754;27;20035;-73
2021/12/20 11:54:37;;;;;;;33.80;19.20;;;;;;;;;;5133966;27;20080;-74
2021/12/20 11:57:04;;;;;;;33.42;21.30;;;;;;;;;;5133561;27;20031;-73
2021/12/20 11:59:49;;;;;;;27.77;17.88;;;;;;;;;;5113615;27;20023;-73
2021/12/20 12:02:19;;;;;;;25.27;16.30;;;;;;;;;;5132497;27;20011;-73
2021/12/20 12:05:18;;;;;;;31.92;19.50;;;;;;;;;;5132225;27;20490;-73
2021/12/20 12:07:45;;;;;;;32.17;20.65;;;;;;;;;;5017629;28;20452;-74
2021/12/20 12:10:14;;;;;;;28.60;18.00;;;;;;;;;;5030784;28;20050;-74
2021/12/20 12:12:43;;;;;;;21.30;15.65;;;;;;;;;;5030032;28;20535;-73
2021/12/20 12:15:10;;;;;;;23.40;16.70;;;;;;;;;;5031130;28;20041;-73
2021/12/20 12:17:54;;;;;;;18.77;13.65;;;;;;;;;;5031359;28;20450;-73
2021/12/20 12:20:39;;;;;;;19.98;13.70;;;;;;;;;;5031210;28;20036;-73
2021/12/20 12:23:24;;;;;;;20.67;13.93;;;;;;;;;;5031172;28;20501;-73
2021/12/20 12:25:53;;;;;;;18.60;13.85;;;;;;;;;;5031194;28;20041;-73
2021/12/20 12:28:39;;;;;;;15.68;11.82;;;;;;;;;;5030870;28;20037;-74
2021/12/20 12:31:07;;;;;;;13.80;10.43;;;;;;;;;;5027116;28;20048;-73
2021/12/20 12:33:35;;;;;;;13.02;10.23;;;;;;;;;;5030338;28;20022;-73
2021/12/20 12:36:03;;;;;;;13.43;9.95;;;;;;;;;;5030992;28;20108;-73
2021/12/20 12:38:38;;;;;;;10.93;8.80;;;;;;;;;;5030917;28;20043;-73
2021/12/20 12:41:11;;;;;;;12.57;9.10;;;;;;;;;;5031447;28;20025;-74
2021/12/20 12:43:49;;;;;;;10.95;8.57;;;;;;;;;;5092614;27;20035;-73
2021/12/20 12:46:15;;;;;;;11.63;9.18;;;;;;;;;;5133567;27;20527;-72
2021/12/20 12:48:47;;;;;;;13.57;9.30;;;;;;;;;;5132773;27;20027;-73
2021/12/20 12:51:19;;;;;;;11.55;9.60;;;;;;;;;;5131090;27;20481;-71
2021/12/20 12:53:46;;;;;;;17.27;9.63;;;;;;;;;;5131218;27;20400;-73
2021/12/20 12:56:24;;;;;;;11.63;9.65;;;;;;;;;;5131527;27;20041;-73
2021/12/20 12:59:06;;;;;;;12.70;9.95;;;;;;;;;;5130898;27;20045;-73
2021/12/20 13:01:32;;;;;;;11.18;9.45;;;;;;;;;;5114625;27;20017;-73
2021/12/20 13:03:59;;;;;;;13.27;10.77;;;;;;;;;;5130719;27;20515;-72
2021/12/20 13:06:25;;;;;;;16.63;11.40;;;;;;;;;;5131288;27;20526;-73
2021/12/20 13:08:53;;;;;;;17.50;10.95;;;;;;;;;;5130806;27;20019;-72
2021/12/20 13:11:20;;;;;;;13.35;10.85;;;;;;;;;;5130735;27;20613;-73
2021/12/20 13:13:55;;;;;;;18.10;12.18;;;;;;;;;;5131946;27;20022;-72
2021/12/20 13:16:26;;;;;;;14.25;11.05;;;;;;;;;;5113728;27;20035;-73
2021/12/20 13:18:53;;;;;;;;;;;;;;;;;;5134187;27;20027;-73
2021/12/20 13:21:25;;;;;;;13.93;10.60;;;;;;;;;;5130640;27;19907;-72
2021/12/20 13:23:52;;;;;;;14.10;10.38;;;;;;;;;;5129975;27;20023;-73
2021/12/20 13:26:21;;;;;;;18.27;11.25;;;;;;;;;;5130195;27;20027;-73
2021/12/20 13:28:51;;;;;;;17.30;11.05;;;;;;;;;;5130716;27;20020;-72
2021/12/20 13:31:19;;;;;;;14.63;10.13;;;;;;;;;;5131873;27;20415;-73
2021/12/20 13:33:51;;;;;;;18.23;12.43;;;;;;;;;;5131396;27;20475;-73
2021/12/20 13:36:22;;;;;;;15.38;9.73;;;;;;;;;;5130232;27;20378;-73
2021/12/20 13:38:50;;;;;;;14.93;10.10;;;;;;;;;;5130189;27;20011;-73
2021/12/20 13:41:17;;;;;;;16.48;10.30;;;;;;;;;;5129795;27;20524;-73
2021/12/20 13:43:45;;;;;;;11.57;9.23;;;;;;;;;;5129926;27;20039;-73
2021/12/20 13:46:30;;;;;;;15.32;9.43;;;;;;;;;;5132431;27;20072;-72
2021/12/20 13:49:05;;;;;;;16.63;9.57;;;;;;;;;;5129230;27;20038;-72
2021/12/20 13:51:43;;;;;;;11.77;8.85;;;;;;;;;;5131179;27;20023;-73
2021/12/20 13:54:21;;;;;;;14.52;7.90;;;;;;;;;;5131610;27;20053;-73
2021/12/20 13:56:51;;;;;;;12.43;8.45;;;;;;;;;;5129552;27;20033;-73
2021/12/20 13:59:29;;;;;;;15.73;8.40;;;;;;;;;;5129860;27;20019;-72
2021/12/20 14:01:56;;;;;;;12.00;8.20;;;;;;;;;;5111724;27;20015;-72
2021/12/20 14:04:26;;;;;;;10.77;8.18;;;;;;;;;;5130942;27;20527;-73
2021/12/20 14:06:53;;;;;;;15.43;9.18;;;;;;;;;;5097548;27;20027;-73
2021/12/20 14:09:23;;;;;;;14.40;8.85;;;;;;;;;;5129758;27;20031;-72
2021/12/20 14:12:05;;;;;;;13.27;9.50;;;;;;;;;;5129547;27;20019;-73
2021/12/20 14:14:32;;;;;;;10.88;8.00;;;;;;;;;;5129405;27;20276;-72
2021/12/20 14:16:59;;;;;;;9.80;7.40;;;;;;;;;;5129615;27;20014;-73
2021/12/20 14:19:44;;;;;;;9.05;7.60;;;;;;;;;;5130679;27;20031;-72
2021/12/20 14:22:10;;;;;;;8.73;6.85;;;;;;;;;;5129260;27;20053;-72
2021/12/20 14:24:37;;;;;;;11.05;7.88;;;;;;;;;;5129894;27;20393;-72
2021/12/20 14:27:04;;;;;;;11.15;8.18;;;;;;;;;;5119244;27;20030;-73
2021/12/20 14:29:34;;;;;;;10.88;7.65;;;;;;;;;;5121587;27;20030;-73
2021/12/20 14:32:00;;;;;;;10.63;7.55;;;;;;;;;;5118151;27;20023;-72
2021/12/20 14:34:31;;;;;;;9.80;6.68;;;;;;;;;;5130218;27;20018;-73
2021/12/20 14:37:07;;;;;;;10.65;7.88;;;;;;;;;;5128576;27;20027;-72
2021/12/20 14:39:41;;;;;;;7.63;6.30;;;;;;;;;;5131557;27;20039;-72
2021/12/20 14:42:07;;;;;;;8.07;6.28;;;;;;;;;;5129122;27;20015;-72
2021/12/20 14:44:43;;;;;;;9.68;6.70;;;;;;;;;;5128837;27;20050;-72
2021/12/20 14:47:17;;;;;;;8.63;6.88;;;;;;;;;;5128934;28;20358;-72
2021/12/20 14:49:51;;;;;;;9.02;7.20;;;;;;;;;;5129201;28;20019;-72